Airfield :
LOGIN :

Register | Disclaimer

   EN    FR    IT 

 










Legend :    VFR   Marginal VFR   IFR   Intensive IFR   Very Intensive IFR
Visi :
Ceiling :
>= 8 km
>= 3000ft
5 to 8 km
1000 to 3000 ft
1500m to 5 km
500 to 1000 ft
800 to 1500m
200 to 500 ft
< 800m
< 200 ft
Symbols :   Thunderstorms  Fog  Heavy snow  Heavy precipitations  Wind > 20 kt
SIGMETs :     Misc.  Thunderstorms  Icing  Turbulence  Mountain Waves  Volcanic Ashes






- Airport Elevation : 256 ft
- IATA code : CFR


LFRK - Caen

CURRENT METAR :
  • 191500Z AUTO 13014KT CAVOK 14/06 Q1012 NOSIG

EXPIRED METARs :
  • 191430Z AUTO 14017KT CAVOK 14/05 Q1012 NOSIG
  • 191400Z AUTO 14016KT CAVOK 15/05 Q1013 BECMG 14016G26KT
  • 191330Z AUTO 14017KT CAVOK 15/06 Q1013 BECMG 14016G26KT
  • 191300Z AUTO 14015KT CAVOK 14/05 Q1014 BECMG 14016G26KT
  • 191230Z AUTO 13015KT CAVOK 14/06 Q1014 BECMG 14016G26KT

TAF TAF LFRK
Valid from the 19 at 15:00 until the 20 at 00:00 UTC


191400Z 1915/1924 14016KT CAVOK
BECMG 1920/1922 14016G26KT
Met : +33 2 31 26 68 11



MET'MAP, your aeronautical weather chart ! - Copyright ORBIFLY December 2007 - Disclaimer

ORBIFLY MET'MAP TEAM :

Programming & Development : Alexandra Zaïnal
Concept & original design : Baudouin d'Aumeries
Assistance for programming : Marc-Olivier Méhu
Technical & hardware support : Manuel Goepfert

Contact : metmap@orbifly.com




SOURCES & CREDITS :

   NOAA